Time;durP1;ratioP1;P1;durP2;ratioP2;P2;SDS_P1;SDS_P2;PMS_P1;PMS_P2;Temp;Humidity;BMP_temperature;BMP_pressure;BME280_temperature;BME280_humidity;BME280_pressure;Samples;Min_cycle;Max_cycle;Signal;HPM_P1;HPM_P2
2022/01/29 00:00:29;;;;;;;24.20;19.35;;;-0.60;99.90;;;;;;5051455;28;20047;-78
2022/01/29 00:02:55;;;;;;;18.17;13.60;;;-0.60;99.90;;;;;;5052512;28;20047;-77
2022/01/29 00:05:21;;;;;;;14.18;8.48;;;-0.70;99.90;;;;;;5050169;28;20021;-77
2022/01/29 00:07:46;;;;;;;16.33;10.15;;;-0.60;99.90;;;;;;5051371;28;20445;-77
2022/01/29 00:10:13;;;;;;;15.48;10.80;;;-0.70;99.90;;;;;;5051232;28;20359;-77
2022/01/29 00:12:39;;;;;;;53.92;31.52;;;-0.70;99.90;;;;;;5052343;28;20036;-78
2022/01/29 00:15:05;;;;;;;9.45;8.35;;;-0.70;99.90;;;;;;5047558;28;20013;-77
2022/01/29 00:17:31;;;;;;;14.98;12.93;;;-0.70;99.90;;;;;;5052397;28;20048;-77
2022/01/29 00:19:57;;;;;;;15.25;10.75;;;-0.70;99.90;;;;;;5052540;28;20057;-77
2022/01/29 00:22:23;;;;;;;13.13;5.93;;;-0.70;99.90;;;;;;5052354;28;20158;-77
2022/01/29 00:24:49;;;;;;;10.95;8.10;;;-0.70;99.90;;;;;;5048995;28;20079;-77
2022/01/29 00:27:14;;;;;;;9.63;5.63;;;-0.70;99.90;;;;;;5052388;28;20029;-77
2022/01/29 00:29:42;;;;;;;10.25;6.78;;;-0.80;99.90;;;;;;5054833;28;20459;-77
2022/01/29 00:32:09;;;;;;;59.45;20.30;;;-0.80;99.90;;;;;;5054353;28;20123;-77
2022/01/29 00:34:35;;;;;;;11.48;5.35;;;-0.80;99.90;;;;;;5056278;28;20425;-77
2022/01/29 00:37:00;;;;;;;8.23;4.35;;;-0.90;99.90;;;;;;5056194;28;20050;-77
2022/01/29 00:39:26;;;;;;;7.25;4.38;;;-0.90;99.90;;;;;;5055032;28;20025;-77
2022/01/29 00:41:52;;;;;;;7.65;4.97;;;-0.90;99.90;;;;;;5054822;28;20107;-77
2022/01/29 00:44:18;;;;;;;11.10;5.70;;;-1.00;99.90;;;;;;5055980;28;20033;-78
2022/01/29 00:46:44;;;;;;;12.38;5.22;;;-1.10;99.90;;;;;;5054657;28;20021;-77
2022/01/29 00:49:11;;;;;;;10.27;6.47;;;-1.20;99.90;;;;;;5054868;28;20466;-77
2022/01/29 00:51:37;;;;;;;7.38;4.63;;;-1.20;99.90;;;;;;5055954;28;20099;-77
2022/01/29 00:54:03;;;;;;;11.18;4.78;;;-1.30;99.90;;;;;;5054730;28;20513;-78
2022/01/29 00:56:29;;;;;;;17.08;5.18;;;-1.40;99.90;;;;;;5054632;28;20025;-77
2022/01/29 00:58:55;;;;;;;15.52;5.93;;;-1.50;99.90;;;;;;5054605;28;20051;-77
2022/01/29 01:01:21;;;;;;;11.07;5.50;;;-1.60;99.90;;;;;;5054410;28;20021;-77
2022/01/29 01:03:46;;;;;;;10.60;5.28;;;-1.70;99.90;;;;;;5055421;28;20095;-77
2022/01/29 01:06:12;;;;;;;11.50;4.82;;;-1.70;99.90;;;;;;5055745;28;20470;-77
2022/01/29 01:08:39;;;;;;;8.82;4.30;;;-1.80;99.90;;;;;;5054279;28;20029;-76
2022/01/29 01:11:04;;;;;;;14.35;6.05;;;-1.90;99.90;;;;;;5054266;28;20502;-77
2022/01/29 01:13:34;;;;;;;8.02;3.83;;;-1.90;99.90;;;;;;5054784;28;20021;-77
2022/01/29 01:16:00;;;;;;;11.93;5.05;;;-2.00;99.90;;;;;;5055514;28;20021;-77
2022/01/29 01:18:26;;;;;;;13.10;6.63;;;-2.00;99.90;;;;;;5057044;28;20118;-77
2022/01/29 01:20:52;;;;;;;8.07;5.30;;;-2.00;99.90;;;;;;5075463;28;20138;-77
2022/01/29 01:23:18;;;;;;;8.30;4.80;;;-2.10;99.90;;;;;;5073982;28;20153;-77
2022/01/29 01:25:43;;;;;;;19.33;8.57;;;-2.10;99.90;;;;;;5073609;28;20393;-77
2022/01/29 01:28:09;;;;;;;191.93;67.40;;;-2.10;99.90;;;;;;5073943;28;20500;-77
2022/01/29 01:30:36;;;;;;;170.02;61.47;;;-2.20;99.90;;;;;;5061189;28;20099;-77
2022/01/29 01:33:03;;;;;;;163.18;67.32;;;-2.20;99.90;;;;;;5055238;28;20052;-77
2022/01/29 01:35:34;;;;;;;395.98;164.32;;;-2.30;99.90;;;;;;5054772;28;20020;-77
2022/01/29 01:40:49;;;;;;;730.90;324.30;;;-2.40;99.90;;;;;;5051657;28;20087;-77
2022/01/29 01:43:15;;;;;;;277.95;106.60;;;-2.40;99.90;;;;;;5054827;28;20029;-77
2022/01/29 01:45:41;;;;;;;156.35;60.35;;;-2.40;99.90;;;;;;5054954;28;20071;-77
2022/01/29 01:48:07;;;;;;;243.35;75.88;;;-2.40;99.90;;;;;;5073427;28;20032;-78
2022/01/29 01:50:34;;;;;;;83.95;29.45;;;-2.50;99.90;;;;;;5051702;28;20470;-78
2022/01/29 01:53:00;;;;;;;249.02;79.57;;;-2.50;99.90;;;;;;5051101;28;20100;-77
2022/01/29 01:55:26;;;;;;;165.52;55.75;;;-2.40;99.90;;;;;;5053470;28;20067;-78
2022/01/29 01:57:52;;;;;;;231.20;81.75;;;-2.50;99.90;;;;;;5054803;28;20021;-77
2022/01/29 02:00:18;;;;;;;71.85;22.80;;;-2.50;99.90;;;;;;5054765;28;20017;-77
2022/01/29 02:02:44;;;;;;;24.25;8.93;;;-2.50;99.90;;;;;;5049517;28;20460;-77
2022/01/29 02:05:10;;;;;;;16.40;6.10;;;-2.50;99.90;;;;;;5053427;28;20044;-77
2022/01/29 02:07:36;;;;;;;13.05;6.55;;;-2.60;99.90;;;;;;5054494;28;20048;-77
2022/01/29 02:10:07;;;;;;;14.32;6.57;;;-2.60;99.90;;;;;;5053224;28;20017;-77
2022/01/29 02:12:48;;;;;;;17.30;8.00;;;-2.70;99.90;;;;;;5053537;28;20045;-77
2022/01/29 02:15:15;;;;;;;11.95;6.60;;;-2.70;99.90;;;;;;5054394;28;20018;-77
2022/01/29 02:17:41;;;;;;;12.57;5.63;;;-2.80;99.90;;;;;;5054340;28;20112;-77
2022/01/29 02:20:07;;;;;;;27.40;10.35;;;-2.70;99.90;;;;;;5053120;28;20119;-77
2022/01/29 02:22:33;;;;;;;16.63;7.60;;;-2.70;99.90;;;;;;5059861;28;20029;-77
2022/01/29 02:24:58;;;;;;;12.23;5.43;;;-2.70;99.90;;;;;;5054657;28;20020;-77
2022/01/29 02:27:24;;;;;;;14.02;7.55;;;-2.70;99.90;;;;;;5059741;28;20471;-77
2022/01/29 02:29:50;;;;;;;14.07;7.40;;;-2.80;99.90;;;;;;5055106;28;20025;-77
2022/01/29 02:32:16;;;;;;;11.32;5.78;;;-2.80;99.90;;;;;;5052797;28;20056;-77
2022/01/29 02:34:43;;;;;;;18.17;7.35;;;-2.80;99.90;;;;;;5054181;28;20021;-78
2022/01/29 02:37:09;;;;;;;18.73;7.55;;;-2.80;99.90;;;;;;5052570;28;20025;-77
2022/01/29 02:39:35;;;;;;;16.65;6.93;;;-2.90;99.90;;;;;;5052756;28;20025;-77
2022/01/29 02:42:01;;;;;;;11.55;5.82;;;-3.00;99.90;;;;;;5053793;28;20029;-77
2022/01/29 02:44:27;;;;;;;19.63;7.28;;;-3.00;99.90;;;;;;5052738;28;20025;-77
2022/01/29 02:46:56;;;;;;;15.40;6.03;;;-3.00;99.90;;;;;;5052585;28;20032;-77
2022/01/29 02:49:25;;;;;;;13.48;6.22;;;-3.00;99.90;;;;;;5053868;28;20025;-77
2022/01/29 02:51:53;;;;;;;15.30;6.35;;;-3.10;99.90;;;;;;5053233;28;20107;-77
2022/01/29 02:54:19;;;;;;;38.60;9.00;;;-3.10;99.90;;;;;;5052380;28;20017;-77
2022/01/29 02:56:45;;;;;;;13.73;5.80;;;-3.20;99.90;;;;;;5053691;28;20033;-77
2022/01/29 02:59:11;;;;;;;17.50;6.40;;;-3.20;99.90;;;;;;5053600;28;20485;-77
2022/01/29 03:01:37;;;;;;;12.80;6.93;;;-3.20;99.90;;;;;;5053519;28;20104;-78
2022/01/29 03:04:03;;;;;;;16.02;7.25;;;-3.20;99.90;;;;;;5052173;28;20033;-77
2022/01/29 03:06:29;;;;;;;17.13;8.45;;;-3.30;99.90;;;;;;5053163;28;20028;-77
2022/01/29 03:08:55;;;;;;;15.45;6.20;;;-3.30;99.90;;;;;;5053709;28;20032;-77
2022/01/29 03:11:22;;;;;;;10.98;6.50;;;-3.30;99.90;;;;;;5052068;28;20021;-77
2022/01/29 03:13:49;;;;;;;17.23;7.43;;;-3.40;99.90;;;;;;5053347;28;20471;-77
2022/01/29 03:16:15;;;;;;;13.15;6.85;;;-3.40;99.90;;;;;;5051991;28;20067;-77
2022/01/29 03:18:41;;;;;;;14.32;6.68;;;-3.40;99.90;;;;;;5053388;28;20021;-77
2022/01/29 03:21:06;;;;;;;18.13;7.05;;;-3.50;99.90;;;;;;5053273;28;20032;-77
2022/01/29 03:23:32;;;;;;;11.57;6.63;;;-3.50;99.90;;;;;;5051879;28;20037;-78
2022/01/29 03:25:57;;;;;;;17.52;7.15;;;-3.50;99.90;;;;;;5053103;28;20081;-77
2022/01/29 03:28:23;;;;;;;16.60;7.88;;;-3.50;99.90;;;;;;5051854;28;20597;-78
2022/01/29 03:30:49;;;;;;;12.32;6.30;;;-3.50;99.90;;;;;;5050031;28;20485;-77
2022/01/29 03:33:14;;;;;;;15.13;6.90;;;-3.50;99.90;;;;;;5046778;28;20021;-77
2022/01/29 03:35:40;;;;;;;15.35;7.07;;;-3.50;99.90;;;;;;5050311;28;20107;-77
2022/01/29 03:38:06;;;;;;;24.20;8.60;;;-3.60;99.90;;;;;;5051523;28;20021;-77
2022/01/29 03:40:33;;;;;;;19.58;9.30;;;-3.60;99.90;;;;;;5051709;28;20075;-77
2022/01/29 03:43:05;;;;;;;20.08;9.57;;;-3.70;99.90;;;;;;5052829;28;20457;-77
2022/01/29 03:45:31;;;;;;;35.10;15.35;;;-3.70;99.90;;;;;;5051678;28;20025;-77
2022/01/29 03:47:57;;;;;;;22.75;10.30;;;-3.80;99.90;;;;;;5051645;28;20028;-77
2022/01/29 03:50:23;;;;;;;17.70;9.48;;;-3.80;99.90;;;;;;5051578;28;20474;-77
2022/01/29 03:52:48;;;;;;;18.15;9.27;;;-3.90;99.90;;;;;;5052795;28;20029;-77
2022/01/29 03:55:14;;;;;;;14.52;8.95;;;-3.80;99.90;;;;;;5052805;28;20029;-77
2022/01/29 03:57:40;;;;;;;18.10;10.15;;;-3.90;99.90;;;;;;5051442;28;20017;-77
2022/01/29 04:00:06;;;;;;;20.80;9.73;;;-3.90;99.90;;;;;;5051539;28;20052;-77
2022/01/29 04:02:32;;;;;;;20.20;13.95;;;-3.80;99.90;;;;;;5047472;28;20386;-77
2022/01/29 04:04:57;;;;;;;19.73;12.63;;;-3.80;99.90;;;;;;5055555;28;20040;-78
2022/01/29 04:07:23;;;;;;;20.60;12.98;;;-3.80;99.90;;;;;;5056674;28;20426;-77
2022/01/29 04:09:51;;;;;;;26.75;14.13;;;-3.80;99.90;;;;;;5055799;28;20036;-77
2022/01/29 04:12:17;;;;;;;15.52;10.57;;;-3.70;99.90;;;;;;5056670;28;20017;-78
2022/01/29 04:14:43;;;;;;;14.00;7.63;;;-3.70;99.90;;;;;;5053175;28;20053;-77
2022/01/29 04:17:11;;;;;;;19.00;9.80;;;-3.70;99.90;;;;;;5056589;28;20478;-77
2022/01/29 04:19:37;;;;;;;21.70;10.48;;;-3.70;99.90;;;;;;5055408;28;20063;-77
2022/01/29 04:22:04;;;;;;;21.67;10.60;;;-3.70;99.90;;;;;;5055189;28;20021;-77
2022/01/29 04:24:31;;;;;;;24.15;10.88;;;-3.70;99.90;;;;;;5056631;28;20049;-77
2022/01/29 04:26:58;;;;;;;18.40;10.15;;;-3.60;99.90;;;;;;5055596;28;20126;-77
2022/01/29 04:29:23;;;;;;;19.58;10.57;;;-3.60;99.90;;;;;;5056468;28;20471;-78
2022/01/29 04:34:22;;;;;;;21.60;11.48;;;-3.60;99.90;;;;;;5056721;28;20029;-77
2022/01/29 04:36:47;;;;;;;21.05;11.70;;;-3.60;99.90;;;;;;5055026;28;20028;-77
2022/01/29 04:39:13;;;;;;;23.85;13.30;;;-3.60;99.90;;;;;;5051002;28;20009;-77
2022/01/29 04:41:39;;;;;;;21.10;11.38;;;-3.50;99.90;;;;;;5056113;28;20025;-77
2022/01/29 04:44:05;;;;;;;18.63;10.43;;;-3.50;99.90;;;;;;5053714;28;20479;-76
2022/01/29 04:46:30;;;;;;;18.45;10.48;;;-3.60;99.90;;;;;;5055997;28;20067;-76
2022/01/29 04:48:56;;;;;;;18.77;10.43;;;-3.60;99.90;;;;;;5054917;28;20108;-77
2022/01/29 04:51:22;;;;;;;25.70;13.27;;;-3.50;99.90;;;;;;5056034;28;20360;-77
2022/01/29 04:53:48;;;;;;;24.75;12.23;;;-3.50;99.90;;;;;;5054653;28;20048;-77
2022/01/29 04:56:15;;;;;;;20.90;11.55;;;-3.50;99.90;;;;;;5055901;28;20025;-77
2022/01/29 04:58:40;;;;;;;21.65;13.15;;;-3.50;99.90;;;;;;5054776;28;20021;-77
2022/01/29 05:01:06;;;;;;;18.85;11.82;;;-3.60;99.90;;;;;;5054565;28;20028;-77
2022/01/29 05:03:32;;;;;;;26.80;13.10;;;-3.60;99.90;;;;;;5050885;28;20037;-77
2022/01/29 05:05:58;;;;;;;22.52;11.90;;;-3.60;99.90;;;;;;5052721;28;20471;-77
2022/01/29 05:08:24;;;;;;;20.30;12.95;;;-3.60;99.90;;;;;;5053613;28;20037;-77
2022/01/29 05:10:50;;;;;;;24.73;13.30;;;-3.60;99.90;;;;;;5048298;28;20100;-77
2022/01/29 05:13:21;;;;;;;28.92;13.02;;;-3.70;99.90;;;;;;5053726;28;20017;-77
2022/01/29 05:16:30;;;;;;;29.33;15.23;;;-3.60;99.90;;;;;;5051766;28;20106;-76
2022/01/29 05:29:19;;;;;;;30.23;15.88;;;-3.50;99.90;;;;;;5055034;28;20398;-77
2022/01/29 05:31:45;;;;;;;38.50;17.70;;;-3.50;99.90;;;;;;5055051;28;20025;-76
2022/01/29 05:34:10;;;;;;;37.35;17.20;;;-3.50;99.90;;;;;;5050335;28;20563;-77
2022/01/29 05:36:36;;;;;;;33.78;16.52;;;-3.50;99.90;;;;;;5054924;28;20015;-77
2022/01/29 05:39:04;;;;;;;32.25;16.80;;;-3.40;99.90;;;;;;5060853;28;20013;-77
2022/01/29 05:41:30;;;;;;;36.35;18.27;;;-3.40;99.90;;;;;;5054028;28;20027;-77
2022/01/29 05:43:56;;;;;;;36.63;19.15;;;-3.40;99.90;;;;;;5064309;28;20036;-77
2022/01/29 05:46:21;;;;;;;36.17;17.73;;;-3.40;99.90;;;;;;5068274;28;20029;-77
2022/01/29 05:48:47;;;;;;;35.22;19.25;;;-3.40;99.90;;;;;;5057348;28;20029;-77
2022/01/29 05:51:13;;;;;;;38.33;20.13;;;-3.30;99.90;;;;;;5054883;28;20025;-76
2022/01/29 05:53:38;;;;;;;44.65;20.88;;;-3.30;99.90;;;;;;5051196;28;20029;-77
2022/01/29 05:56:07;;;;;;;38.92;21.05;;;-3.30;99.90;;;;;;5052422;28;20075;-78
2022/01/29 05:58:42;;;;;;;36.38;18.98;;;-3.20;99.90;;;;;;5050288;28;20095;-79
2022/01/29 06:01:08;;;;;;;37.42;20.35;;;-3.20;99.90;;;;;;5060816;28;20517;-77
2022/01/29 06:03:34;;;;;;;40.95;22.00;;;-3.20;99.90;;;;;;5052753;28;20526;-78
2022/01/29 06:05:59;;;;;;;36.15;21.17;;;-3.20;99.90;;;;;;5058270;28;20112;-77
2022/01/29 06:08:25;;;;;;;39.17;21.60;;;-3.10;99.90;;;;;;5051876;28;20108;-78
2022/01/29 06:10:50;;;;;;;43.92;19.67;;;-3.10;99.90;;;;;;5049566;28;20095;-78
2022/01/29 06:13:16;;;;;;;39.42;21.02;;;-3.10;99.90;;;;;;5044472;28;20109;-78
2022/01/29 06:15:44;;;;;;;42.28;21.58;;;-3.00;99.90;;;;;;5067073;28;20024;-78
2022/01/29 06:18:13;;;;;;;44.05;23.75;;;-3.00;99.90;;;;;;5074818;28;20020;-78
2022/01/29 06:20:40;;;;;;;36.38;22.05;;;-3.00;99.90;;;;;;5073141;28;20474;-78
2022/01/29 06:23:06;;;;;;;40.97;21.95;;;-3.00;99.90;;;;;;5057638;28;20036;-78
2022/01/29 06:25:32;;;;;;;41.13;21.45;;;-3.00;99.90;;;;;;5053108;28;20390;-78
2022/01/29 06:27:57;;;;;;;41.92;23.10;;;-3.00;99.90;;;;;;5059452;28;20035;-78
2022/01/29 06:30:23;;;;;;;46.55;23.52;;;-2.90;99.90;;;;;;5057071;28;20013;-78
2022/01/29 06:32:49;;;;;;;44.85;23.73;;;-2.90;99.90;;;;;;5058635;28;20366;-78
2022/01/29 06:35:14;;;;;;;38.47;23.15;;;-3.00;99.90;;;;;;5052912;28;20063;-78
2022/01/29 06:37:40;;;;;;;42.78;24.70;;;-3.00;99.90;;;;;;5055666;28;20047;-78
2022/01/29 06:40:06;;;;;;;51.00;24.75;;;-3.00;99.90;;;;;;5054006;28;20066;-78
2022/01/29 06:42:32;;;;;;;50.70;25.52;;;-3.00;99.90;;;;;;5057228;28;20025;-78
2022/01/29 06:44:58;;;;;;;48.58;27.40;;;-3.10;99.90;;;;;;5055798;28;20044;-78
2022/01/29 06:47:23;;;;;;;51.63;25.60;;;-3.10;99.90;;;;;;5057762;28;20028;-78
2022/01/29 06:49:49;;;;;;;47.30;22.50;;;-3.10;99.90;;;;;;5059047;28;20047;-78
2022/01/29 06:52:15;;;;;;;42.47;23.30;;;-3.20;99.90;;;;;;5063973;28;20513;-78
2022/01/29 06:54:40;;;;;;;40.65;22.83;;;-3.20;99.90;;;;;;5068045;28;20025;-77
2022/01/29 06:57:06;;;;;;;42.50;23.10;;;-3.20;99.90;;;;;;5061778;28;20033;-77
2022/01/29 06:59:32;;;;;;;46.72;23.00;;;-3.20;99.90;;;;;;5062095;28;20548;-77
2022/01/29 07:01:57;;;;;;;45.92;23.17;;;-3.20;99.90;;;;;;5055546;28;20083;-77
2022/01/29 07:04:23;;;;;;;45.90;25.50;;;-3.10;99.90;;;;;;5047142;28;20094;-77
2022/01/29 07:06:48;;;;;;;48.55;24.17;;;-3.20;99.90;;;;;;5051588;28;20051;-77
2022/01/29 07:09:14;;;;;;;48.55;24.42;;;-3.10;99.90;;;;;;5046651;28;20028;-77
2022/01/29 07:11:43;;;;;;;53.33;24.10;;;-3.10;99.90;;;;;;5045395;28;20028;-76
2022/01/29 07:14:08;;;;;;;71.07;34.72;;;-3.10;99.90;;;;;;5045471;28;20033;-77
2022/01/29 07:16:35;;;;;;;416.60;147.38;;;-3.00;99.90;;;;;;5051890;28;20027;-76
2022/01/29 07:19:03;;;;;;;563.88;220.25;;;-2.90;99.90;;;;;;5052221;28;20127;-76
2022/01/29 07:21:29;;;;;;;233.88;85.38;;;-2.90;99.90;;;;;;5052100;28;20025;-76
2022/01/29 07:23:55;;;;;;;116.07;48.35;;;-2.80;99.90;;;;;;5038795;28;20405;-77
2022/01/29 07:26:21;;;;;;;78.22;35.40;;;-2.70;99.90;;;;;;5041356;28;20028;-76
2022/01/29 07:28:46;;;;;;;105.57;44.50;;;-2.70;99.90;;;;;;5046220;28;20029;-76
2022/01/29 07:31:12;;;;;;;108.80;41.50;;;-2.60;99.90;;;;;;5039468;28;20104;-76
2022/01/29 07:33:37;;;;;;;138.30;54.25;;;-2.50;99.90;;;;;;5042078;28;20033;-76
2022/01/29 07:36:04;;;;;;;98.40;38.97;;;-2.50;99.90;;;;;;5047178;28;20032;-75
2022/01/29 07:38:29;;;;;;;62.35;25.45;;;-2.40;99.90;;;;;;5046819;28;20536;-75
2022/01/29 07:40:55;;;;;;;72.18;29.50;;;-2.30;99.90;;;;;;5044043;28;20032;-76
2022/01/29 07:43:20;;;;;;;71.53;27.38;;;-2.30;99.90;;;;;;5044794;28;20045;-75
2022/01/29 07:45:46;;;;;;;33.10;16.67;;;-2.30;99.90;;;;;;5041626;28;20017;-76
2022/01/29 07:48:11;;;;;;;41.45;18.88;;;-2.20;99.90;;;;;;5044277;28;20403;-76
2022/01/29 07:50:37;;;;;;;38.67;20.52;;;-2.20;99.90;;;;;;5039228;28;20056;-75
2022/01/29 07:53:04;;;;;;;35.20;15.90;;;-2.20;99.90;;;;;;5039527;28;20036;-75
2022/01/29 07:55:30;;;;;;;34.75;15.07;;;-2.10;99.90;;;;;;5040729;28;20024;-76
2022/01/29 07:57:58;;;;;;;42.55;19.02;;;-2.00;99.90;;;;;;5063482;28;20028;-76
2022/01/29 08:00:23;;;;;;;32.13;15.65;;;-2.00;99.90;;;;;;5035819;28;20021;-76
2022/01/29 08:02:49;;;;;;;34.58;16.85;;;-1.90;99.90;;;;;;5063317;28;20044;-76
2022/01/29 08:05:15;;;;;;;33.13;15.77;;;-1.90;99.90;;;;;;5044404;28;20463;-76
2022/01/29 08:07:40;;;;;;;30.25;14.45;;;-1.70;99.90;;;;;;5064840;28;20471;-76
2022/01/29 08:10:07;;;;;;;33.47;14.45;;;-1.70;99.90;;;;;;5042149;28;20017;-76
2022/01/29 08:12:33;;;;;;;31.35;14.80;;;-1.50;99.90;;;;;;5056165;28;20542;-76
2022/01/29 08:14:58;;;;;;;31.08;14.05;;;-1.40;99.90;;;;;;5038067;28;20470;-76
2022/01/29 08:17:24;;;;;;;35.80;15.13;;;-1.40;99.90;;;;;;5039484;28;20017;-77
2022/01/29 08:19:50;;;;;;;31.42;13.35;;;-1.30;99.90;;;;;;5043699;28;20028;-76
2022/01/29 08:22:19;;;;;;;34.25;14.35;;;-1.20;99.90;;;;;;5045582;28;20416;-77
2022/01/29 08:24:44;;;;;;;26.00;14.30;;;-1.20;99.90;;;;;;5042823;28;20032;-76
2022/01/29 08:27:11;;;;;;;36.70;16.02;;;-1.00;99.90;;;;;;5040279;28;20026;-76
2022/01/29 08:29:36;;;;;;;38.70;15.77;;;-1.00;99.90;;;;;;5034502;28;20049;-77
2022/01/29 08:32:03;;;;;;;27.10;13.18;;;-0.80;99.90;;;;;;5031063;28;20102;-76
2022/01/29 08:34:29;;;;;;;22.52;12.95;;;-0.80;99.90;;;;;;5032088;28;20026;-76
2022/01/29 08:36:57;;;;;;;30.48;12.88;;;-0.70;99.90;;;;;;5033714;28;20360;-76
2022/01/29 08:39:24;;;;;;;25.40;10.77;;;-0.60;99.90;;;;;;5052336;28;20021;-76
2022/01/29 08:41:50;;;;;;;22.35;10.32;;;-0.60;99.90;;;;;;5051026;28;20382;-76
2022/01/29 08:44:16;;;;;;;29.17;11.48;;;-0.60;99.90;;;;;;5051967;28;20037;-75
2022/01/29 08:46:42;;;;;;;27.33;12.27;;;-0.60;99.90;;;;;;5050917;28;20036;-76
2022/01/29 08:49:08;;;;;;;21.90;9.73;;;-0.70;99.90;;;;;;5050958;28;20372;-77
2022/01/29 08:51:33;;;;;;;26.90;12.27;;;-0.70;99.90;;;;;;5054423;28;20017;-77
2022/01/29 08:53:59;;;;;;;31.65;13.15;;;-0.70;99.90;;;;;;5055947;28;20033;-76
2022/01/29 08:56:25;;;;;;;25.27;13.85;;;-0.70;99.90;;;;;;5048642;28;20100;-76
2022/01/29 08:58:50;;;;;;;32.17;14.57;;;-0.70;99.90;;;;;;5053488;28;20041;-75
2022/01/29 09:01:17;;;;;;;31.92;13.00;;;-0.70;99.90;;;;;;5051657;28;20025;-75
2022/01/29 09:03:43;;;;;;;25.48;11.15;;;-0.80;99.90;;;;;;5054546;28;20471;-75
2022/01/29 09:06:09;;;;;;;26.27;11.43;;;-0.70;99.90;;;;;;5053178;28;20104;-75
2022/01/29 09:08:34;;;;;;;27.88;11.80;;;-0.60;99.90;;;;;;5041433;28;20125;-75
2022/01/29 09:11:00;;;;;;;31.35;14.13;;;-0.50;99.90;;;;;;5034113;28;20029;-75
2022/01/29 09:13:27;;;;;;;29.40;12.77;;;-0.40;99.10;;;;;;5033842;28;20411;-74
2022/01/29 09:15:53;;;;;;;28.00;11.38;;;-0.30;98.50;;;;;;5043595;28;20494;-75
2022/01/29 09:18:19;;;;;;;20.92;11.20;;;-0.20;96.50;;;;;;5053498;28;20021;-74
2022/01/29 09:20:44;;;;;;;26.08;11.57;;;-0.10;94.70;;;;;;5054758;28;20424;-75
2022/01/29 09:23:10;;;;;;;25.35;10.55;;;0.00;92.80;;;;;;5048066;28;20048;-75
2022/01/29 09:25:36;;;;;;;21.92;10.95;;;-0.10;90.40;;;;;;5053697;28;20021;-75
2022/01/29 09:28:05;;;;;;;25.02;10.93;;;-0.10;90.20;;;;;;5050021;28;20406;-75
2022/01/29 09:30:31;;;;;;;23.88;10.95;;;-0.10;90.60;;;;;;5054981;28;20025;-75
2022/01/29 09:32:57;;;;;;;26.42;10.10;;;0.00;90.30;;;;;;5052871;28;20490;-75
2022/01/29 09:35:24;;;;;;;20.95;10.57;;;0.10;89.80;;;;;;5052204;28;20028;-76
2022/01/29 09:37:50;;;;;;;22.45;9.55;;;0.20;89.00;;;;;;5052149;28;20031;-74
2022/01/29 09:40:16;;;;;;;20.10;9.70;;;0.40;89.10;;;;;;5053144;28;20429;-75
2022/01/29 09:42:45;;;;;;;21.83;9.05;;;0.50;87.10;;;;;;5048172;28;20032;-74
2022/01/29 09:45:16;;;;;;;27.73;9.77;;;0.60;86.70;;;;;;5053242;28;20478;-74
2022/01/29 09:47:43;;;;;;;21.50;9.07;;;0.60;85.60;;;;;;5052205;28;20529;-74
2022/01/29 09:50:10;;;;;;;19.42;9.13;;;0.80;85.30;;;;;;5053342;28;20025;-74
2022/01/29 09:52:36;;;;;;;21.17;9.13;;;0.80;83.50;;;;;;5054048;28;20028;-74
2022/01/29 09:55:02;;;;;;;22.40;9.52;;;0.90;83.90;;;;;;5051894;28;20410;-74
2022/01/29 09:57:28;;;;;;;16.95;8.65;;;1.00;84.50;;;;;;5040806;28;20029;-75
2022/01/29 09:59:54;;;;;;;24.77;10.90;;;1.10;84.30;;;;;;5034570;28;20041;-74
2022/01/29 10:02:20;;;;;;;22.38;9.32;;;1.20;83.80;;;;;;5048052;28;20413;-75
2022/01/29 10:04:49;;;;;;;17.85;9.05;;;1.20;83.80;;;;;;5051307;28;20037;-75
2022/01/29 10:07:18;;;;;;;25.73;9.23;;;1.30;82.90;;;;;;5051110;28;20060;-74
2022/01/29 10:09:44;;;;;;;18.20;7.93;;;1.20;80.60;;;;;;5037883;28;20105;-74
2022/01/29 10:12:29;;;;;;;14.13;7.55;;;1.30;81.10;;;;;;5041431;28;20013;-75
2022/01/29 10:15:05;;;;;;;17.98;8.20;;;1.30;79.70;;;;;;5046376;28;20112;-74
2022/01/29 10:17:51;;;;;;;14.52;7.63;;;1.30;79.00;;;;;;5052495;28;20028;-74
2022/01/29 10:20:22;;;;;;;15.90;6.72;;;1.30;79.70;;;;;;5052405;28;20094;-75
2022/01/29 10:22:58;;;;;;;17.80;7.22;;;1.40;79.30;;;;;;5053337;28;20072;-75
2022/01/29 10:25:25;;;;;;;20.33;10.10;;;1.30;79.90;;;;;;5053295;28;20083;-75
2022/01/29 10:28:20;;;;;;;27.05;13.20;;;1.50;79.60;;;;;;5039930;28;20109;-74
2022/01/29 10:30:49;;;;;;;13.30;6.57;;;1.60;77.80;;;;;;5032456;28;20061;-75
2022/01/29 10:33:38;;;;;;;28.95;9.77;;;1.60;75.80;;;;;;5031966;28;20029;-74
2022/01/29 10:36:09;;;;;;;21.55;9.90;;;1.70;75.10;;;;;;5036321;28;20032;-73
2022/01/29 10:38:41;;;;;;;17.30;7.30;;;1.70;74.50;;;;;;5052326;28;20036;-73
2022/01/29 10:41:24;;;;;;;19.95;6.78;;;1.70;75.20;;;;;;5051403;28;20025;-73
2022/01/29 10:44:21;;;;;;;19.13;7.78;;;1.70;76.00;;;;;;5050014;28;20040;-73
2022/01/29 10:46:52;;;;;;;20.45;8.82;;;1.80;76.90;;;;;;5051286;28;20023;-73
2022/01/29 10:49:22;;;;;;;19.60;8.93;;;1.80;78.10;;;;;;5053293;28;20033;-74
2022/01/29 10:52:08;;;;;;;18.38;8.20;;;1.70;78.90;;;;;;5051154;28;20108;-74
2022/01/29 10:54:36;;;;;;;22.20;10.10;;;1.70;80.60;;;;;;5053001;28;20033;-74
2022/01/29 10:57:08;;;;;;;14.68;7.88;;;1.70;80.80;;;;;;5049384;28;20499;-74
2022/01/29 10:59:45;;;;;;;14.65;7.60;;;1.80;81.00;;;;;;5052345;28;20037;-74
2022/01/29 11:02:12;;;;;;;16.30;7.18;;;1.70;81.70;;;;;;5052585;28;20108;-72
2022/01/29 11:04:39;;;;;;;17.60;9.38;;;1.70;82.10;;;;;;5052086;28;20107;-73
2022/01/29 11:07:12;;;;;;;18.65;8.38;;;1.80;82.60;;;;;;5052598;28;20028;-73
2022/01/29 11:09:44;;;;;;;19.88;9.02;;;1.70;84.00;;;;;;5051795;28;20049;-73
2022/01/29 11:12:11;;;;;;;16.83;7.00;;;1.80;86.30;;;;;;5050786;28;20113;-73
2022/01/29 11:14:38;;;;;;;19.13;8.07;;;1.80;85.80;;;;;;5047143;28;20444;-73
2022/01/29 11:17:04;;;;;;;23.60;9.23;;;1.90;87.00;;;;;;5051437;28;20021;-73
2022/01/29 11:19:33;;;;;;;18.52;8.75;;;1.80;87.30;;;;;;5049936;28;20095;-74
2022/01/29 11:22:06;;;;;;;17.50;8.73;;;1.80;87.30;;;;;;5044570;28;20029;-73
2022/01/29 11:24:32;;;;;;;24.52;9.20;;;1.90;88.50;;;;;;5035088;28;20042;-74
2022/01/29 11:26:58;;;;;;;21.63;7.70;;;1.80;88.40;;;;;;5043826;28;20025;-74
2022/01/29 11:29:35;;;;;;;17.02;7.15;;;1.80;89.40;;;;;;5052298;28;20045;-74
2022/01/29 11:32:23;;;;;;;14.85;8.05;;;1.90;90.80;;;;;;5052064;28;20051;-74
2022/01/29 11:35:12;;;;;;;16.52;7.65;;;1.80;91.20;;;;;;5046630;28;20030;-74
2022/01/29 11:37:46;;;;;;;20.95;8.70;;;1.90;91.90;;;;;;5032101;28;20079;-74
2022/01/29 11:40:16;;;;;;;23.73;8.35;;;1.90;92.50;;;;;;5031531;28;20052;-76
2022/01/29 11:42:51;;;;;;;17.20;8.57;;;1.80;92.10;;;;;;5030573;28;20037;-77
2022/01/29 11:45:40;;;;;;;21.95;8.20;;;1.80;94.30;;;;;;5041415;28;20112;-73
2022/01/29 11:48:07;;;;;;;16.60;9.05;;;1.80;94.60;;;;;;5032700;28;20018;-74
2022/01/29 11:50:32;;;;;;;17.80;8.38;;;1.80;95.30;;;;;;5031045;28;20487;-73
2022/01/29 11:53:01;;;;;;;19.40;8.40;;;1.80;96.00;;;;;;5049647;28;20033;-74
2022/01/29 11:55:33;;;;;;;16.55;8.25;;;1.90;96.70;;;;;;5049760;28;20036;-73
2022/01/29 11:58:18;;;;;;;17.40;8.32;;;1.80;97.40;;;;;;5051301;28;20490;-74
2022/01/29 12:00:45;;;;;;;21.42;8.63;;;1.90;96.80;;;;;;5044117;28;20036;-74
2022/01/29 12:03:35;;;;;;;24.73;9.55;;;1.90;96.80;;;;;;5044051;28;20522;-74
2022/01/29 12:09:07;;;;;;;21.52;7.80;;;1.90;96.90;;;;;;5050291;28;20047;-74
2022/01/29 12:11:39;;;;;;;17.85;7.13;;;1.90;97.40;;;;;;5048610;28;20060;-73
2022/01/29 12:14:14;;;;;;;26.20;8.18;;;1.90;96.80;;;;;;5043013;28;20498;-73
2022/01/29 12:16:47;;;;;;;22.55;9.15;;;1.90;97.30;;;;;;5050498;28;20049;-73
2022/01/29 12:19:32;;;;;;;26.27;8.25;;;1.90;97.40;;;;;;5049779;28;20021;-73
2022/01/29 12:21:59;;;;;;;17.98;7.55;;;1.80;98.00;;;;;;5049008;28;20108;-73
2022/01/29 12:24:25;;;;;;;16.70;7.07;;;1.80;97.60;;;;;;5050865;28;20526;-72
2022/01/29 12:26:55;;;;;;;16.17;7.25;;;1.70;98.20;;;;;;5055170;28;20120;-73
2022/01/29 12:29:22;;;;;;;14.63;7.70;;;1.70;99.40;;;;;;5042905;28;20486;-75
2022/01/29 12:31:52;;;;;;;19.45;8.32;;;1.60;99.90;;;;;;5050079;28;20553;-73
2022/01/29 12:34:20;;;;;;;21.00;8.25;;;1.60;99.90;;;;;;5076397;28;20032;-73
2022/01/29 12:36:46;;;;;;;26.80;11.90;;;1.50;99.90;;;;;;5074570;28;20077;-73
2022/01/29 12:39:20;;;;;;;17.95;7.13;;;1.60;99.90;;;;;;5075766;28;20028;-72
2022/01/29 12:42:00;;;;;;;17.35;7.47;;;1.50;99.90;;;;;;5076126;28;20523;-72
2022/01/29 12:44:26;;;;;;;20.63;7.03;;;1.50;99.90;;;;;;5045228;28;20043;-73
2022/01/29 12:46:52;;;;;;;24.98;7.32;;;1.50;99.90;;;;;;5044371;28;20033;-72
2022/01/29 12:49:17;;;;;;;15.00;8.48;;;1.50;99.90;;;;;;5054610;28;20025;-73
2022/01/29 12:51:56;;;;;;;19.73;8.77;;;1.40;99.90;;;;;;5050466;28;20025;-76
2022/01/29 12:54:23;;;;;;;16.98;8.18;;;1.40;99.90;;;;;;5055548;28;20098;-75